createdAt,value
2022-09-15T00:01:03.000Z,7.32
2022-09-15T00:03:30.487Z,7.73
2022-09-15T00:05:57.940Z,6.50
2022-09-15T00:08:25.772Z,7.28
2022-09-15T00:10:55.907Z,7.65
2022-09-15T00:13:23.771Z,9.38
2022-09-15T00:15:53.201Z,10.30
2022-09-15T00:18:21.379Z,11.88
2022-09-15T00:20:48.940Z,12.55
2022-09-15T00:23:17.593Z,11.25
2022-09-15T00:25:46.371Z,13.10
2022-09-15T00:28:14.526Z,14.37
2022-09-15T00:30:43.013Z,13.45
2022-09-15T00:33:12.052Z,13.57
2022-09-15T00:35:40.767Z,12.63
2022-09-15T00:38:09.232Z,14.85
2022-09-15T00:40:45.155Z,14.23
2022-09-15T00:43:13.888Z,15.45
2022-09-15T00:45:41.610Z,16.05
2022-09-15T00:48:15.133Z,16.52
2022-09-15T00:50:45.712Z,16.27
2022-09-15T00:53:14.740Z,15.87
2022-09-15T00:55:47.300Z,16.00
2022-09-15T00:58:20.893Z,15.40
2022-09-15T01:00:55.273Z,16.02
2022-09-15T01:03:25.065Z,16.08
2022-09-15T01:05:55.658Z,17.70
2022-09-15T01:08:30.719Z,16.95
2022-09-15T01:10:58.879Z,16.17
2022-09-15T01:13:26.912Z,15.65
2022-09-15T01:16:03.443Z,16.25
2022-09-15T01:18:40.891Z,14.97
2022-09-15T01:21:20.309Z,15.10
2022-09-15T01:24:33.831Z,15.50
2022-09-15T01:27:37.622Z,16.42
2022-09-15T01:30:06.636Z,14.93
2022-09-15T01:33:06.646Z,16.13
2022-09-15T01:35:45.016Z,15.77
2022-09-15T01:38:17.959Z,14.77
2022-09-15T01:40:50.966Z,14.00
2022-09-15T01:43:20.057Z,14.43
2022-09-15T01:45:50.664Z,13.77
2022-09-15T01:48:20.848Z,13.65
2022-09-15T01:50:52.378Z,13.30
2022-09-15T01:53:22.991Z,14.15
2022-09-15T01:55:55.126Z,15.05
2022-09-15T01:58:22.893Z,13.70
2022-09-15T02:00:56.909Z,14.23
2022-09-15T02:03:33.579Z,13.65
2022-09-15T02:06:05.052Z,15.50
2022-09-15T02:08:39.056Z,16.65
2022-09-15T02:11:16.474Z,15.73
2022-09-15T02:13:49.641Z,16.60
2022-09-15T02:16:22.194Z,16.55
2022-09-15T02:19:08.755Z,16.67
2022-09-15T02:21:45.425Z,15.80
2022-09-15T02:24:18.548Z,13.77
2022-09-15T02:26:49.783Z,16.25
2022-09-15T02:29:20.697Z,17.10
2022-09-15T02:31:52.431Z,16.98
2022-09-15T02:34:24.826Z,16.10
2022-09-15T02:36:54.574Z,16.97
2022-09-15T02:39:27.342Z,17.13
2022-09-15T02:41:54.972Z,17.15
2022-09-15T02:44:23.402Z,16.48
2022-09-15T02:46:52.262Z,16.67
2022-09-15T02:49:20.005Z,16.87
2022-09-15T02:51:47.617Z,16.80
2022-09-15T02:54:15.067Z,16.30
2022-09-15T02:56:43.406Z,15.20
2022-09-15T02:59:10.849Z,15.45
2022-09-15T03:01:38.878Z,15.17
2022-09-15T03:04:08.238Z,16.38
2022-09-15T03:06:35.848Z,16.35
2022-09-15T03:09:06.316Z,15.90
2022-09-15T03:11:34.738Z,16.00
2022-09-15T03:14:04.033Z,14.43
2022-09-15T03:16:34.256Z,15.05
2022-09-15T03:19:02.188Z,13.05
2022-09-15T03:21:30.996Z,13.68
2022-09-15T03:23:58.936Z,13.40
2022-09-15T03:26:26.899Z,12.43
2022-09-15T03:28:54.330Z,13.77
2022-09-15T03:31:22.062Z,12.68
2022-09-15T03:33:49.632Z,12.50
2022-09-15T03:36:17.216Z,12.82
2022-09-15T03:38:45.970Z,12.90
2022-09-15T03:41:13.848Z,13.68
2022-09-15T03:43:41.598Z,13.40
2022-09-15T03:46:11.347Z,14.45
2022-09-15T03:48:40.397Z,13.70
2022-09-15T03:51:09.948Z,13.13
2022-09-15T03:53:39.008Z,13.65
2022-09-15T03:56:14.354Z,12.80
2022-09-15T03:58:41.770Z,11.90
2022-09-15T04:01:09.298Z,15.23
2022-09-15T04:03:43.271Z,12.27
2022-09-15T04:06:13.202Z,12.60
2022-09-15T04:08:40.761Z,12.15
2022-09-15T04:11:09.622Z,13.38
2022-09-15T04:13:41.717Z,12.73
2022-09-15T04:16:11.547Z,12.90
2022-09-15T04:18:39.398Z,12.57
2022-09-15T04:21:09.435Z,13.02
2022-09-15T04:23:37.055Z,12.23
2022-09-15T04:26:06.686Z,13.32
2022-09-15T04:28:36.799Z,12.70
2022-09-15T04:31:07.323Z,13.23
2022-09-15T04:33:35.409Z,12.55
2022-09-15T04:36:04.658Z,12.88
2022-09-15T04:38:32.986Z,12.65
2022-09-15T04:41:01.776Z,12.33
2022-09-15T04:43:29.904Z,12.07
2022-09-15T04:45:57.380Z,11.80
2022-09-15T04:48:27.289Z,12.63
2022-09-15T04:50:54.987Z,12.05
2022-09-15T04:53:22.431Z,12.20
2022-09-15T04:55:49.943Z,12.07
2022-09-15T04:58:17.365Z,12.43
2022-09-15T05:00:44.849Z,12.65
2022-09-15T05:03:14.274Z,12.85
2022-09-15T05:05:43.048Z,12.10
2022-09-15T05:08:10.832Z,13.75
2022-09-15T05:10:39.601Z,12.63
2022-09-15T05:13:07.029Z,11.15
2022-09-15T05:15:34.651Z,11.65
2022-09-15T05:18:02.153Z,11.90
2022-09-15T05:20:29.688Z,12.73
2022-09-15T05:22:58.508Z,11.95
2022-09-15T05:25:26.077Z,13.80
2022-09-15T05:27:53.720Z,13.35
2022-09-15T05:30:37.693Z,12.67
2022-09-15T05:33:06.259Z,12.75
2022-09-15T05:35:33.682Z,12.85
2022-09-15T05:38:02.579Z,13.57
2022-09-15T05:40:30.017Z,13.35
2022-09-15T05:42:57.491Z,12.13
2022-09-15T05:45:25.243Z,12.52
2022-09-15T05:47:52.686Z,12.88
2022-09-15T05:50:20.235Z,14.27
2022-09-15T05:52:51.895Z,15.05
2022-09-15T05:55:20.648Z,13.93
2022-09-15T05:57:48.139Z,15.32
2022-09-15T06:00:16.269Z,15.35
2022-09-15T06:02:44.062Z,14.45
2022-09-15T06:05:11.605Z,13.50
2022-09-15T06:07:39.112Z,13.17
2022-09-15T06:10:07.727Z,15.20
2022-09-15T06:12:36.466Z,14.40
2022-09-15T06:15:04.118Z,13.52
2022-09-15T06:17:33.996Z,12.18
2022-09-15T06:20:01.485Z,12.67
2022-09-15T06:22:29.166Z,12.70
2022-09-15T06:24:56.584Z,13.30
2022-09-15T06:27:25.643Z,14.23
2022-09-15T06:29:54.435Z,14.75
2022-09-15T06:32:21.996Z,15.27
2022-09-15T06:34:49.463Z,13.20
2022-09-15T06:37:16.923Z,12.68
2022-09-15T06:39:44.584Z,13.68
2022-09-15T06:42:13.980Z,12.73
2022-09-15T06:44:41.544Z,12.87
2022-09-15T06:47:10.607Z,13.18
2022-09-15T06:49:38.038Z,10.30
2022-09-15T06:52:05.484Z,11.50
2022-09-15T06:54:32.962Z,12.05
2022-09-15T06:57:00.440Z,11.60
2022-09-15T06:59:27.949Z,11.68
2022-09-15T07:01:56.136Z,9.55
2022-09-15T07:04:24.936Z,9.75
2022-09-15T07:06:52.369Z,10.82
2022-09-15T07:09:19.959Z,11.00
2022-09-15T07:11:47.368Z,10.60
2022-09-15T07:14:14.798Z,11.60
2022-09-15T07:16:42.245Z,11.43
2022-09-15T07:19:09.676Z,10.85
2022-09-15T07:21:38.438Z,10.47
2022-09-15T07:24:07.545Z,8.95
2022-09-15T07:26:35.688Z,12.02
2022-09-15T07:29:05.328Z,10.35
2022-09-15T07:31:35.277Z,10.52
2022-09-15T07:34:03.468Z,9.40
2022-09-15T07:36:32.083Z,9.60
2022-09-15T07:39:00.844Z,9.63
2022-09-15T07:41:30.060Z,10.48
2022-09-15T07:43:59.250Z,10.52
2022-09-15T07:46:28.083Z,11.37
2022-09-15T07:48:56.599Z,11.90
2022-09-15T07:51:24.675Z,11.13
2022-09-15T07:53:52.958Z,11.13
2022-09-15T07:56:23.201Z,11.55
2022-09-15T07:58:51.221Z,10.87
2022-09-15T08:01:20.381Z,9.80
2022-09-15T08:03:49.902Z,10.70
2022-09-15T08:06:19.161Z,10.23
2022-09-15T08:08:46.994Z,10.93
2022-09-15T08:11:18.827Z,10.60
2022-09-15T08:13:49.265Z,9.82
2022-09-15T08:16:18.821Z,9.15
2022-09-15T08:18:46.772Z,8.65
2022-09-15T08:21:17.175Z,12.00
2022-09-15T08:23:45.136Z,9.40
2022-09-15T08:26:14.592Z,10.50
2022-09-15T08:28:42.996Z,11.43
2022-09-15T08:31:13.989Z,10.32
2022-09-15T08:33:45.531Z,8.73
2022-09-15T08:36:13.791Z,10.00
2022-09-15T08:38:41.855Z,9.80
2022-09-15T08:41:15.375Z,7.05
2022-09-15T08:43:47.610Z,7.30
2022-09-15T08:46:21.199Z,6.88
2022-09-15T08:48:54.854Z,7.67
2022-09-15T08:51:28.391Z,7.03
2022-09-15T08:54:04.087Z,5.75
2022-09-15T08:56:31.969Z,6.18
2022-09-15T08:59:00.628Z,6.72
2022-09-15T09:01:41.923Z,7.23
2022-09-15T09:04:24.189Z,6.28
2022-09-15T09:07:04.775Z,7.57
2022-09-15T09:09:41.380Z,6.78
2022-09-15T09:12:33.441Z,6.68
2022-09-15T09:15:16.808Z,6.77
2022-09-15T09:18:08.507Z,6.95
2022-09-15T09:20:46.575Z,5.75
2022-09-15T09:23:16.772Z,5.70
2022-09-15T09:25:45.180Z,7.47
2022-09-15T09:28:24.576Z,6.87
2022-09-15T09:30:52.049Z,7.07
2022-09-15T09:33:30.229Z,5.05
2022-09-15T09:36:01.072Z,5.07
2022-09-15T09:38:33.344Z,5.32
2022-09-15T09:41:02.542Z,6.30
2022-09-15T09:43:31.306Z,6.20
2022-09-15T09:45:59.155Z,5.57
2022-09-15T09:48:29.780Z,6.40
2022-09-15T09:50:57.699Z,5.47
2022-09-15T09:53:29.789Z,5.57
2022-09-15T09:56:17.187Z,6.53
2022-09-15T09:58:44.874Z,5.13
2022-09-15T10:01:14.528Z,5.90
2022-09-15T10:03:45.119Z,6.40
2022-09-15T10:06:14.723Z,6.27
2022-09-15T10:09:04.991Z,6.68
2022-09-15T10:11:44.828Z,8.05
2022-09-15T10:14:22.016Z,6.45
2022-09-15T10:17:00.768Z,7.13
2022-09-15T10:19:31.984Z,6.80
2022-09-15T10:22:01.425Z,6.93
2022-09-15T10:24:36.557Z,6.50
2022-09-15T10:27:09.494Z,7.00
2022-09-15T10:29:40.477Z,6.00
2022-09-15T10:32:25.293Z,7.53
2022-09-15T10:35:02.220Z,6.13
2022-09-15T10:37:35.887Z,5.85
2022-09-15T10:40:19.243Z,4.82
2022-09-15T10:42:51.662Z,4.82
2022-09-15T10:45:26.106Z,4.43
2022-09-15T10:48:18.588Z,5.32
2022-09-15T10:50:56.430Z,3.97
2022-09-15T10:53:44.022Z,5.35
2022-09-15T10:56:22.418Z,5.20
2022-09-15T10:59:03.421Z,4.67
2022-09-15T11:01:53.375Z,5.07
2022-09-15T11:04:45.370Z,5.25
2022-09-15T11:07:21.368Z,4.10
2022-09-15T11:09:54.751Z,5.03
2022-09-15T11:12:38.293Z,4.37
2022-09-15T11:15:18.619Z,3.47
2022-09-15T11:17:59.772Z,3.53
2022-09-15T11:20:44.604Z,3.58
2022-09-15T11:23:19.642Z,4.28
2022-09-15T11:25:51.603Z,2.07
2022-09-15T11:28:22.565Z,1.75
2022-09-15T11:30:56.784Z,2.63
2022-09-15T11:33:31.906Z,1.58
2022-09-15T11:36:03.659Z,1.60
2022-09-15T11:38:42.775Z,2.10
2022-09-15T11:41:19.403Z,1.50
2022-09-15T11:43:55.614Z,1.83
2022-09-15T11:46:30.951Z,1.80
2022-09-15T11:49:04.364Z,2.13
2022-09-15T11:51:38.297Z,1.57
2022-09-15T11:54:13.493Z,1.60
2022-09-15T11:56:44.682Z,2.28
2022-09-15T11:59:20.330Z,1.60
2022-09-15T12:01:53.200Z,1.77
2022-09-15T12:04:26.494Z,1.90
2022-09-15T12:06:57.972Z,1.27
2022-09-15T12:09:27.050Z,1.63
2022-09-15T12:11:58.388Z,1.73
2022-09-15T12:14:31.320Z,1.60
2022-09-15T12:17:00.080Z,1.43
2022-09-15T12:19:50.161Z,1.63
2022-09-15T12:22:24.380Z,2.33
2022-09-15T12:25:01.348Z,1.88
2022-09-15T12:27:29.232Z,2.03
2022-09-15T12:29:58.040Z,2.00
2022-09-15T12:32:28.676Z,2.05
2022-09-15T12:35:01.678Z,1.77
2022-09-15T12:37:39.580Z,1.92
2022-09-15T12:40:27.686Z,2.25
2022-09-15T12:42:55.514Z,1.73
2022-09-15T12:45:27.053Z,1.83
2022-09-15T12:47:58.092Z,2.00
2022-09-15T12:50:30.159Z,1.88
2022-09-15T12:53:00.820Z,1.98
2022-09-15T12:55:33.424Z,1.80
2022-09-15T12:58:07.257Z,2.67
2022-09-15T13:00:49.990Z,2.50
2022-09-15T13:03:49.948Z,2.63
2022-09-15T13:06:20.917Z,2.40
2022-09-15T13:08:56.542Z,2.20
2022-09-15T13:11:40.130Z,2.10
2022-09-15T13:14:14.860Z,2.20
2022-09-15T13:16:49.296Z,2.28
2022-09-15T13:19:21.279Z,2.08
2022-09-15T13:21:58.428Z,2.07
2022-09-15T13:24:37.680Z,2.45
2022-09-15T13:27:07.324Z,2.30
2022-09-15T13:29:41.980Z,2.08
2022-09-15T13:32:18.363Z,1.90
2022-09-15T13:35:16.557Z,1.83
2022-09-15T13:38:16.762Z,2.10
2022-09-15T13:41:32.722Z,2.05
2022-09-15T13:44:23.095Z,2.22
2022-09-15T13:47:02.362Z,2.83
2022-09-15T13:49:46.466Z,3.00
2022-09-15T13:52:24.973Z,2.40
2022-09-15T13:55:21.480Z,2.22
2022-09-15T14:00:48.159Z,2.28
2022-09-15T14:03:19.896Z,2.77
2022-09-15T14:05:47.541Z,2.55
2022-09-15T14:08:17.931Z,2.90
2022-09-15T14:10:52.966Z,3.47
2022-09-15T14:13:23.511Z,3.28
2022-09-15T14:15:58.748Z,3.10
2022-09-15T14:18:26.657Z,2.80
2022-09-15T14:21:05.319Z,3.55
2022-09-15T14:23:33.552Z,3.50
2022-09-15T14:26:03.216Z,3.63
2022-09-15T14:28:33.044Z,3.47
2022-09-15T14:31:01.633Z,3.00
2022-09-15T14:33:37.601Z,4.70
2022-09-15T14:36:13.878Z,4.60
2022-09-15T14:38:41.308Z,5.32
2022-09-15T14:41:20.016Z,4.83
2022-09-15T14:43:47.476Z,3.95
2022-09-15T14:46:17.794Z,5.63
2022-09-15T14:48:45.786Z,5.25
2022-09-15T14:51:19.949Z,4.82
2022-09-15T14:53:50.380Z,5.60
2022-09-15T14:56:23.595Z,5.47
2022-09-15T14:58:53.578Z,6.43
2022-09-15T15:01:27.010Z,5.07
2022-09-15T15:04:01.298Z,6.05
2022-09-15T15:06:34.243Z,6.30
2022-09-15T15:09:04.054Z,5.38
2022-09-15T15:11:35.339Z,6.60
2022-09-15T15:14:06.615Z,5.70
2022-09-15T15:16:35.554Z,6.32
2022-09-15T15:19:03.587Z,6.00
2022-09-15T15:21:40.091Z,6.10
2022-09-15T15:24:20.556Z,6.15
2022-09-15T15:26:50.739Z,6.25
2022-09-15T15:29:42.915Z,6.65
2022-09-15T15:32:13.394Z,6.33
2022-09-15T15:34:48.254Z,6.70
2022-09-15T15:37:24.899Z,2.92
2022-09-15T15:39:53.112Z,2.80
2022-09-15T15:42:22.280Z,1.83
2022-09-15T15:45:06.010Z,1.80
2022-09-15T15:47:36.441Z,1.77
2022-09-15T15:50:14.037Z,1.23
2022-09-15T15:52:42.390Z,1.00
2022-09-15T15:55:14.628Z,1.10
2022-09-15T15:57:43.979Z,1.03
2022-09-15T16:00:22.353Z,1.10
2022-09-15T16:02:50.386Z,1.00
2022-09-15T16:05:18.601Z,0.95
2022-09-15T16:07:48.431Z,1.00
2022-09-15T16:10:17.068Z,1.10
2022-09-15T16:12:45.853Z,0.60
2022-09-15T16:15:16.603Z,1.02
2022-09-15T16:17:46.758Z,1.15
2022-09-15T16:20:15.750Z,0.90
2022-09-15T16:22:43.686Z,0.80
2022-09-15T16:25:15.734Z,0.80
2022-09-15T16:27:43.289Z,1.00
2022-09-15T16:30:12.927Z,1.17
2022-09-15T16:32:41.199Z,1.27
2022-09-15T16:35:22.697Z,1.00
2022-09-15T16:37:50.170Z,1.10
2022-09-15T16:40:18.137Z,1.00
2022-09-15T16:42:46.087Z,0.90
2022-09-15T16:45:22.863Z,1.10
2022-09-15T16:47:50.288Z,0.90
2022-09-15T16:50:17.912Z,1.35
2022-09-15T16:52:45.436Z,0.93
2022-09-15T16:55:23.157Z,0.90
2022-09-15T16:57:50.665Z,0.90
2022-09-15T17:00:19.802Z,1.17
2022-09-15T17:02:47.219Z,1.20
2022-09-15T17:05:28.024Z,0.80
2022-09-15T17:07:55.492Z,0.98
2022-09-15T17:10:23.182Z,0.93
2022-09-15T17:12:50.698Z,0.80
2022-09-15T17:15:23.344Z,1.58
2022-09-15T17:17:51.014Z,1.10
2022-09-15T17:20:19.452Z,0.93
2022-09-15T17:22:47.803Z,0.90
2022-09-15T17:25:24.015Z,1.00
2022-09-15T17:27:51.936Z,1.10
2022-09-15T17:30:22.326Z,1.02
2022-09-15T17:32:50.554Z,1.00
2022-09-15T17:35:21.222Z,1.20
2022-09-15T17:37:49.306Z,1.37
2022-09-15T17:40:17.788Z,1.27
2022-09-15T17:42:45.779Z,1.13
2022-09-15T17:45:19.752Z,1.15
2022-09-15T17:47:48.598Z,1.17
2022-09-15T17:50:16.512Z,0.70
2022-09-15T17:52:44.175Z,1.00
2022-09-15T17:55:14.648Z,0.95
2022-09-15T17:57:42.100Z,1.20
2022-09-15T18:00:12.114Z,1.25
2022-09-15T18:02:40.770Z,1.43
2022-09-15T18:05:18.221Z,1.23
2022-09-15T18:07:45.720Z,1.70
2022-09-15T18:10:13.412Z,1.13
2022-09-15T18:12:41.865Z,1.52
2022-09-15T18:15:16.483Z,1.40
2022-09-15T18:17:44.538Z,1.95
2022-09-15T18:20:18.093Z,1.48
2022-09-15T18:22:46.071Z,1.08
2022-09-15T18:25:17.901Z,1.90
2022-09-15T18:27:45.400Z,1.50
2022-09-15T18:30:14.017Z,1.70
2022-09-15T18:32:41.466Z,1.60
2022-09-15T18:35:10.010Z,1.70
2022-09-15T18:37:39.272Z,1.75
2022-09-15T18:40:09.379Z,1.90
2022-09-15T18:42:37.573Z,1.67
2022-09-15T18:45:06.580Z,1.83
2022-09-15T18:47:34.559Z,1.50
2022-09-15T18:50:03.530Z,1.70
2022-09-15T18:52:30.928Z,1.37
2022-09-15T18:55:00.217Z,1.90
2022-09-15T18:57:28.348Z,2.22
2022-09-15T18:59:55.735Z,1.60
2022-09-15T19:02:23.194Z,1.48
2022-09-15T19:04:50.650Z,1.57
2022-09-15T19:07:18.058Z,1.65
2022-09-15T19:09:45.499Z,1.75
2022-09-15T19:12:14.341Z,1.85
2022-09-15T19:14:46.010Z,1.83
2022-09-15T19:17:14.219Z,2.00
2022-09-15T19:19:41.821Z,1.92
2022-09-15T19:22:09.934Z,2.00
2022-09-15T19:24:37.887Z,2.20
2022-09-15T19:27:07.276Z,1.50
2022-09-15T19:29:37.328Z,2.07
2022-09-15T19:32:06.806Z,2.50
2022-09-15T19:34:34.611Z,2.65
2022-09-15T19:37:04.831Z,2.25
2022-09-15T19:39:34.335Z,2.05
2022-09-15T19:42:01.862Z,2.20
2022-09-15T19:44:29.484Z,2.28
2022-09-15T19:46:58.611Z,2.20
2022-09-15T19:49:26.741Z,2.28
2022-09-15T19:51:55.817Z,2.22
2022-09-15T19:54:24.067Z,2.37
2022-09-15T19:56:52.027Z,2.28
2022-09-15T19:59:20.615Z,2.38
2022-09-15T20:01:48.426Z,2.45
2022-09-15T20:04:17.256Z,2.20
2022-09-15T20:06:44.718Z,2.50
2022-09-15T20:09:12.158Z,2.38
2022-09-15T20:11:39.567Z,2.40
2022-09-15T20:14:07.333Z,2.20
2022-09-15T20:16:34.996Z,1.75
2022-09-15T20:19:04.165Z,1.87
2022-09-15T20:21:51.127Z,1.40
2022-09-15T20:24:20.215Z,1.48
2022-09-15T20:26:47.662Z,1.45
2022-09-15T20:29:15.246Z,1.30
2022-09-15T20:31:43.440Z,1.27
2022-09-15T20:34:10.834Z,1.30
2022-09-15T20:36:40.023Z,1.35
2022-09-15T20:39:10.368Z,1.23
2022-09-15T20:41:37.885Z,1.30
2022-09-15T20:44:09.269Z,1.73
2022-09-15T20:46:37.382Z,1.67
2022-09-15T20:49:05.607Z,1.75
2022-09-15T20:51:33.651Z,1.60
2022-09-15T20:54:04.340Z,1.70
2022-09-15T20:56:34.719Z,1.40
2022-09-15T20:59:02.609Z,1.40
2022-09-15T21:01:34.049Z,1.50
2022-09-15T21:04:01.815Z,1.77
2022-09-15T21:06:29.707Z,1.48
2022-09-15T21:08:57.770Z,1.57
2022-09-15T21:11:27.912Z,1.70
2022-09-15T21:13:55.803Z,1.40
2022-09-15T21:16:26.001Z,1.90
2022-09-15T21:18:54.018Z,1.90
2022-09-15T21:21:23.527Z,2.07
2022-09-15T21:23:52.978Z,2.80
2022-09-15T21:26:22.129Z,2.00
2022-09-15T21:28:51.450Z,2.17
2022-09-15T21:31:21.079Z,1.90
2022-09-15T21:33:49.579Z,1.73
2022-09-15T21:36:20.697Z,1.92
2022-09-15T21:38:48.564Z,2.30
2022-09-15T21:41:18.077Z,2.45
2022-09-15T21:43:46.542Z,2.35
2022-09-15T21:46:17.724Z,2.20
2022-09-15T21:48:47.112Z,2.15
2022-09-15T21:51:15.949Z,2.10
2022-09-15T21:53:43.551Z,2.20
2022-09-15T21:56:12.427Z,1.60
2022-09-15T21:58:42.985Z,1.97
2022-09-15T22:01:12.810Z,2.20
2022-09-15T22:03:43.013Z,1.63
2022-09-15T22:06:11.588Z,1.88
2022-09-15T22:08:39.704Z,1.65
2022-09-15T22:11:08.887Z,1.90
2022-09-15T22:13:38.342Z,1.70
2022-09-15T22:16:08.930Z,1.90
2022-09-15T22:18:37.216Z,1.60
2022-09-15T22:21:14.646Z,2.10
2022-09-15T22:23:42.967Z,1.33
2022-09-15T22:26:12.187Z,2.08
2022-09-15T22:28:39.920Z,1.90
2022-09-15T22:31:08.865Z,1.60
2022-09-15T22:33:36.659Z,1.90
2022-09-15T22:36:05.889Z,1.90
2022-09-15T22:38:34.661Z,1.90
2022-09-15T22:41:05.011Z,1.42
2022-09-15T22:43:32.480Z,1.58
2022-09-15T22:46:00.357Z,1.90
2022-09-15T22:48:27.875Z,1.37
2022-09-15T22:50:55.388Z,1.50
2022-09-15T22:53:23.359Z,1.40
2022-09-15T22:55:52.932Z,1.77
2022-09-15T22:58:20.984Z,1.77
2022-09-15T23:00:48.480Z,1.57
2022-09-15T23:03:15.936Z,1.67
2022-09-15T23:05:43.359Z,1.65
2022-09-15T23:08:10.849Z,1.23
2022-09-15T23:10:38.274Z,1.58
2022-09-15T23:13:07.013Z,1.63
2022-09-15T23:15:35.100Z,1.27
2022-09-15T23:18:02.945Z,1.40
2022-09-15T23:20:30.962Z,2.05
2022-09-15T23:22:58.387Z,1.45
2022-09-15T23:25:25.804Z,1.40
2022-09-15T23:27:53.244Z,1.58
2022-09-15T23:30:21.960Z,1.63
2022-09-15T23:32:49.367Z,1.80
2022-09-15T23:35:16.850Z,1.13
2022-09-15T23:37:44.501Z,1.63
2022-09-15T23:40:12.025Z,1.40
2022-09-15T23:42:39.611Z,1.80
2022-09-15T23:45:08.174Z,2.03
2022-09-15T23:47:36.904Z,1.60
2022-09-15T23:50:04.739Z,1.67
2022-09-15T23:52:32.152Z,1.60
2022-09-15T23:54:59.563Z,1.73
2022-09-15T23:57:26.992Z,1.70
2022-09-15T23:59:54.376Z,1.60
